WELCOME TO TCFT

Voted One Of The Best Flight Schools In The USA

 

 

Learn More

BECOME AN AIRLINE PILOT

Treasure Coast Flight Training is committed to serving all of your aviation needs as a full service flight academy, aircraft rental facility, and pilot shop

Contact Us

 

 

Questions About Becoming An Airline Pilot?

Get Started

 

 

What Our Graduates Say

 

 

The training I received with Treasure Coast Flight Training prepared me to become a professional pilot

 

Nathan Meisner

Pilot - Cessna Caravan - USA

Professional yet relaxed environment. Truly an enjoyable experience to fly with TCFT

 

Sophia

Certified Flight Instructor - China

The training I needed to get me to where I am now!

 

Enderson Rafael

Pilot - Go Airlines - Brazil

Thank you TCFT for making me an airline pilot!

 

Kyle Barrett

Pilot - GoJet Airlines - USA

Current Conditions

 

Metar

 

KSUA 180047Z KT04010KT 7SM SCT020 27/23 A3003

 

TAF

 

TAF AMD KSUA 171951Z 1720/1818 04008KT P6SM VCSH SCT020 BKN250 TEMPO 1720/1721 3SM SHRA BKN020 FM180200 03007KT P6SM SCT035 BKN050 OVC100 FM181500 05007KT P6SM SCT025 BKN050

 

 

Look No Further. Get Started Today

 

 

Enroll Now